Time;durP1;ratioP1;P1;durP2;ratioP2;P2;SDS_P1;SDS_P2;PMS_P1;PMS_P2;Temp;Humidity;BMP_temperature;BMP_pressure;BME280_temperature;BME280_humidity;BME280_pressure;Samples;Min_cycle;Max_cycle;Signal;HPM_P1;HPM_P2
2021/09/07 00:00:18;;;;;;;10.87;7.87;;;21.40;96.20;;;;;;5009361;28;20240;-70
2021/09/07 00:02:43;;;;;;;8.60;7.70;;;21.40;96.10;;;;;;5009088;28;20307;-69
2021/09/07 00:05:10;;;;;;;10.30;7.10;;;21.40;96.00;;;;;;5012190;28;20233;-70
2021/09/07 00:07:36;;;;;;;8.73;7.43;;;21.50;96.10;;;;;;4989979;28;20220;-70
2021/09/07 00:10:05;;;;;;;7.83;6.97;;;21.50;96.10;;;;;;4986899;28;20969;-69
2021/09/07 00:12:31;;;;;;;10.60;8.87;;;21.40;96.20;;;;;;4988629;28;20217;-70
2021/09/07 00:14:56;;;;;;;9.27;8.30;;;21.50;96.30;;;;;;4987113;28;20540;-70
2021/09/07 00:17:23;;;;;;;7.83;7.13;;;21.50;96.20;;;;;;5006219;28;20467;-69
2021/09/07 00:19:49;;;;;;;9.80;8.03;;;21.50;96.10;;;;;;5005550;28;20802;-70
2021/09/07 00:22:15;;;;;;;10.33;7.70;;;21.40;96.00;;;;;;5012442;28;20463;-70
2021/09/07 00:24:40;;;;;;;9.30;7.30;;;21.40;95.90;;;;;;4993749;28;20225;-70
2021/09/07 00:27:06;;;;;;;11.67;7.93;;;21.40;95.90;;;;;;4996317;28;20241;-69
2021/09/07 00:29:32;;;;;;;8.30;7.03;;;21.40;95.90;;;;;;5005491;28;20221;-70
2021/09/07 00:31:57;;;;;;;8.27;7.10;;;21.40;96.00;;;;;;4986803;28;20228;-70
2021/09/07 00:34:23;;;;;;;13.27;9.50;;;21.30;95.90;;;;;;5007131;28;20224;-70
2021/09/07 00:36:49;;;;;;;10.10;7.60;;;21.30;95.90;;;;;;4989539;28;20252;-69
2021/09/07 00:39:15;;;;;;;9.50;7.23;;;21.30;95.90;;;;;;5004669;28;20539;-69
2021/09/07 00:41:42;;;;;;;9.93;8.20;;;21.30;95.90;;;;;;4988750;28;20210;-69
2021/09/07 00:44:15;;;;;;;9.53;7.77;;;21.20;95.90;;;;;;4986555;28;20483;-70
2021/09/07 00:46:47;;;;;;;8.80;7.77;;;21.20;96.00;;;;;;5005807;28;20508;-69
2021/09/07 00:49:13;;;;;;;9.20;7.50;;;21.10;95.90;;;;;;4986620;28;20538;-70
2021/09/07 00:51:39;;;;;;;8.23;7.37;;;21.10;95.90;;;;;;4988786;28;20492;-70
2021/09/07 00:54:05;;;;;;;9.27;7.60;;;21.10;95.90;;;;;;5003531;28;20221;-70
2021/09/07 00:56:34;;;;;;;9.00;7.93;;;20.90;96.20;;;;;;5001990;28;20474;-70
2021/09/07 00:59:02;;;;;;;9.17;7.93;;;20.80;96.40;;;;;;5006870;28;20574;-70
2021/09/07 01:01:28;;;;;;;10.00;8.30;;;20.70;96.50;;;;;;5005590;28;20459;-70
2021/09/07 01:03:54;;;;;;;8.57;6.97;;;20.80;96.40;;;;;;5003213;28;20456;-70
2021/09/07 01:06:21;;;;;;;7.83;7.00;;;20.80;96.30;;;;;;5005307;28;20518;-70
2021/09/07 01:08:47;;;;;;;9.93;7.20;;;20.80;96.30;;;;;;5003900;28;20460;-70
2021/09/07 01:11:14;;;;;;;10.43;8.23;;;20.80;96.40;;;;;;4986764;28;20213;-69
2021/09/07 01:13:40;;;;;;;8.30;7.50;;;20.80;96.40;;;;;;4999788;28;20478;-69
2021/09/07 01:16:08;;;;;;;8.90;7.03;;;20.70;96.30;;;;;;5018170;28;20637;-70
2021/09/07 01:18:34;;;;;;;10.43;7.13;;;20.70;96.30;;;;;;4989122;28;20456;-70
2021/09/07 01:21:01;;;;;;;11.67;8.80;;;20.70;96.30;;;;;;5003203;28;20475;-69
2021/09/07 01:23:27;;;;;;;10.10;8.20;;;20.70;96.30;;;;;;5005766;28;20222;-69
2021/09/07 01:25:53;;;;;;;9.87;8.10;;;20.70;96.40;;;;;;5006321;28;21004;-70
2021/09/07 01:28:19;;;;;;;8.73;7.87;;;20.60;96.60;;;;;;5011181;28;20455;-69
2021/09/07 01:30:45;;;;;;;8.90;7.63;;;20.60;96.60;;;;;;5012291;28;20224;-69
2021/09/07 01:33:12;;;;;;;9.80;7.20;;;20.60;96.50;;;;;;5012934;28;20456;-69
2021/09/07 01:35:41;;;;;;;8.57;6.73;;;20.60;96.50;;;;;;4992632;28;20213;-70
2021/09/07 01:38:06;;;;;;;9.07;7.77;;;20.50;96.50;;;;;;5007952;28;20460;-69
2021/09/07 01:40:32;;;;;;;9.00;6.80;;;20.50;96.50;;;;;;5007039;28;20582;-70
2021/09/07 01:42:58;;;;;;;9.30;7.93;;;20.50;96.50;;;;;;4986397;28;20217;-70
2021/09/07 01:45:23;;;;;;;10.27;7.67;;;20.50;96.50;;;;;;4992625;28;20229;-70
2021/09/07 01:47:50;;;;;;;8.40;7.43;;;20.50;96.50;;;;;;4992097;28;20236;-70
2021/09/07 01:50:17;;;;;;;10.20;8.40;;;20.40;96.60;;;;;;4991659;28;20221;-69
2021/09/07 01:52:43;;;;;;;8.67;7.57;;;20.40;96.60;;;;;;5008033;28;20953;-69
2021/09/07 01:55:10;;;;;;;8.97;8.03;;;20.30;96.70;;;;;;5006936;28;21024;-70
2021/09/07 01:57:35;;;;;;;8.60;7.20;;;20.30;96.70;;;;;;4991988;28;20487;-70
2021/09/07 02:00:03;;;;;;;8.50;7.23;;;20.30;96.60;;;;;;5002207;28;20490;-70
2021/09/07 02:02:38;;;;;;;8.73;7.83;;;20.30;96.60;;;;;;5002220;28;20293;-69
2021/09/07 02:05:06;;;;;;;9.83;7.70;;;20.30;96.70;;;;;;4990068;28;20480;-70
2021/09/07 02:07:34;;;;;;;11.27;8.40;;;20.30;96.70;;;;;;5008332;28;20471;-70
2021/09/07 02:09:59;;;;;;;11.53;7.83;;;20.30;96.70;;;;;;5001738;28;21091;-70
2021/09/07 02:12:25;;;;;;;12.10;8.30;;;20.30;96.80;;;;;;5007633;28;20704;-70
2021/09/07 02:14:52;;;;;;;9.80;7.33;;;20.20;96.80;;;;;;4990082;28;20225;-71
2021/09/07 02:17:18;;;;;;;9.30;7.83;;;20.20;96.80;;;;;;4991956;28;20220;-69
2021/09/07 02:19:45;;;;;;;10.43;8.27;;;20.20;96.70;;;;;;4991434;28;20452;-69
2021/09/07 02:22:11;;;;;;;9.50;8.50;;;20.20;96.80;;;;;;5014671;28;20464;-69
2021/09/07 02:24:38;;;;;;;10.67;8.13;;;20.10;96.70;;;;;;5027805;28;20989;-69
2021/09/07 02:27:04;;;;;;;11.40;8.57;;;20.10;96.80;;;;;;5025435;28;20471;-70
2021/09/07 02:29:31;;;;;;;13.53;8.77;;;20.00;96.90;;;;;;5027583;28;20491;-69
2021/09/07 02:31:57;;;;;;;9.20;8.30;;;20.00;96.90;;;;;;5008307;28;20513;-70
2021/09/07 02:34:25;;;;;;;10.53;8.83;;;20.00;96.90;;;;;;5010162;28;20448;-69
2021/09/07 02:36:52;;;;;;;8.90;8.00;;;19.90;96.80;;;;;;5005623;28;20461;-70
2021/09/07 02:39:19;;;;;;;9.77;7.87;;;19.90;96.90;;;;;;4996709;28;20463;-69
2021/09/07 02:41:45;;;;;;;9.60;8.17;;;19.90;96.80;;;;;;5005757;28;20456;-70
2021/09/07 02:44:10;;;;;;;10.33;8.20;;;19.90;96.90;;;;;;5006698;28;20682;-70
2021/09/07 02:46:36;;;;;;;10.87;7.90;;;19.90;96.90;;;;;;4990477;28;20561;-69
2021/09/07 02:49:03;;;;;;;11.17;7.70;;;19.90;96.90;;;;;;5005297;28;20225;-69
2021/09/07 02:51:29;;;;;;;7.87;7.10;;;19.70;97.10;;;;;;5006620;28;20468;-69
2021/09/07 02:53:55;;;;;;;10.53;8.33;;;19.60;97.10;;;;;;4988801;28;20460;-69
2021/09/07 02:56:22;;;;;;;10.60;8.80;;;19.60;97.20;;;;;;5020046;28;20615;-70
2021/09/07 02:58:48;;;;;;;10.90;8.27;;;19.70;97.20;;;;;;5010684;28;20470;-69
2021/09/07 03:01:13;;;;;;;10.63;8.50;;;19.50;97.30;;;;;;5004934;28;20217;-69
2021/09/07 03:03:39;;;;;;;14.97;9.03;;;19.40;97.50;;;;;;4990715;28;20228;-69
2021/09/07 03:06:05;;;;;;;11.13;8.87;;;19.50;97.50;;;;;;5004435;28;20503;-69
2021/09/07 03:08:32;;;;;;;9.87;8.33;;;19.50;97.40;;;;;;5007218;28;20216;-69
2021/09/07 03:10:58;;;;;;;10.23;8.77;;;19.50;97.40;;;;;;5004702;28;20461;-69
2021/09/07 03:13:24;;;;;;;8.60;7.63;;;19.50;97.40;;;;;;4990421;28;20945;-70
2021/09/07 03:15:50;;;;;;;9.63;8.10;;;19.50;97.40;;;;;;5006443;28;20491;-70
2021/09/07 03:18:17;;;;;;;11.37;8.10;;;19.50;97.40;;;;;;5005967;28;20218;-69
2021/09/07 03:20:44;;;;;;;11.20;7.70;;;19.50;97.50;;;;;;5006945;28;20460;-69
2021/09/07 03:23:10;;;;;;;10.83;8.37;;;19.40;97.50;;;;;;5020738;28;20470;-69
2021/09/07 03:25:36;;;;;;;9.40;7.80;;;19.40;97.60;;;;;;4997791;28;20225;-70
2021/09/07 03:28:03;;;;;;;9.83;8.37;;;19.40;97.60;;;;;;4988537;28;20467;-69
2021/09/07 03:30:29;;;;;;;10.47;7.83;;;19.40;97.60;;;;;;5006802;28;20483;-69
2021/09/07 03:32:55;;;;;;;10.97;8.43;;;19.40;97.70;;;;;;5003855;28;20495;-70
2021/09/07 03:35:22;;;;;;;12.40;8.83;;;19.40;97.60;;;;;;4989622;28;20217;-70
2021/09/07 03:37:49;;;;;;;12.87;8.87;;;19.40;97.60;;;;;;5010245;28;20458;-69
2021/09/07 03:40:15;;;;;;;9.67;8.30;;;19.30;97.70;;;;;;5003214;28;20547;-70
2021/09/07 03:42:42;;;;;;;13.43;8.70;;;19.30;97.70;;;;;;4999574;28;20225;-69
2021/09/07 03:45:12;;;;;;;11.20;8.33;;;19.30;97.70;;;;;;5019435;28;20874;-69
2021/09/07 03:47:40;;;;;;;11.10;8.07;;;19.30;97.70;;;;;;4989930;28;20563;-69
2021/09/07 03:50:07;;;;;;;10.40;8.40;;;19.30;97.70;;;;;;5005041;28;20467;-69
2021/09/07 03:52:33;;;;;;;10.30;8.90;;;19.30;97.70;;;;;;4989492;28;20997;-70
2021/09/07 03:55:00;;;;;;;10.67;7.60;;;19.20;97.70;;;;;;5004178;28;20472;-70
2021/09/07 03:57:26;;;;;;;10.23;8.43;;;19.20;97.80;;;;;;5006507;28;20444;-69
2021/09/07 03:59:54;;;;;;;9.57;7.77;;;19.20;97.90;;;;;;5003456;28;20263;-70
2021/09/07 04:02:20;;;;;;;10.50;9.10;;;19.10;97.80;;;;;;5005928;28;20452;-69
2021/09/07 04:04:46;;;;;;;10.87;8.70;;;19.10;97.90;;;;;;4986026;28;20464;-70
2021/09/07 04:07:12;;;;;;;11.60;8.70;;;19.10;98.00;;;;;;5000968;28;20766;-69
2021/09/07 04:09:38;;;;;;;9.00;8.10;;;19.10;98.00;;;;;;4985859;28;20607;-70
2021/09/07 04:12:05;;;;;;;9.73;7.90;;;19.00;98.10;;;;;;5000021;28;20464;-69
2021/09/07 04:14:32;;;;;;;10.53;8.00;;;19.00;98.20;;;;;;4989941;28;20490;-70
2021/09/07 04:16:58;;;;;;;10.83;7.90;;;19.00;98.20;;;;;;4984639;28;20461;-69
2021/09/07 04:19:27;;;;;;;10.90;8.80;;;19.00;98.20;;;;;;4970495;28;20516;-69
2021/09/07 04:21:53;;;;;;;10.40;8.30;;;19.00;98.20;;;;;;5004360;28;20474;-70
2021/09/07 04:24:19;;;;;;;10.00;8.67;;;19.00;98.30;;;;;;5000268;28;20471;-69
2021/09/07 04:26:44;;;;;;;13.27;9.23;;;19.00;98.10;;;;;;5025579;28;20229;-69
2021/09/07 04:29:10;;;;;;;12.97;8.57;;;19.00;98.10;;;;;;5007096;28;20224;-70
2021/09/07 04:31:36;;;;;;;8.87;7.70;;;19.00;98.20;;;;;;5008982;28;20223;-69
2021/09/07 04:34:02;;;;;;;12.27;7.50;;;19.00;98.10;;;;;;5009116;28;20217;-69
2021/09/07 04:36:28;;;;;;;184.60;106.77;;;19.00;98.20;;;;;;5008228;28;20216;-69
2021/09/07 04:38:54;;;;;;;80.57;50.07;;;19.00;98.30;;;;;;5003653;28;20457;-68
2021/09/07 04:41:20;;;;;;;32.13;22.00;;;19.00;98.30;;;;;;4988519;28;20699;-69
2021/09/07 04:43:46;;;;;;;20.10;15.30;;;19.00;98.30;;;;;;4989340;28;20683;-69
2021/09/07 04:46:12;;;;;;;15.00;11.93;;;19.00;98.30;;;;;;4986965;28;20547;-69
2021/09/07 04:48:39;;;;;;;18.40;10.47;;;19.00;98.40;;;;;;4985692;28;21169;-69
2021/09/07 04:51:04;;;;;;;12.40;9.80;;;18.90;98.40;;;;;;5003107;28;20484;-69
2021/09/07 04:53:30;;;;;;;12.00;8.97;;;18.90;98.70;;;;;;5005299;28;20641;-69
2021/09/07 04:55:56;;;;;;;11.00;8.90;;;18.90;98.40;;;;;;4995050;28;20589;-70
2021/09/07 04:58:22;;;;;;;12.23;9.13;;;18.90;98.40;;;;;;5014144;28;20782;-70
2021/09/07 05:00:48;;;;;;;11.00;8.47;;;18.90;98.40;;;;;;4988748;28;20226;-69
2021/09/07 05:03:14;;;;;;;10.60;8.67;;;18.80;98.20;;;;;;5005776;28;20530;-70
2021/09/07 05:05:39;;;;;;;11.43;8.10;;;18.80;98.30;;;;;;5009214;28;20233;-69
2021/09/07 05:08:05;;;;;;;9.90;7.73;;;18.80;98.40;;;;;;5005139;28;20213;-69
2021/09/07 05:10:31;;;;;;;12.23;7.23;;;18.70;98.40;;;;;;5008822;28;20637;-69
2021/09/07 05:12:56;;;;;;;7.70;6.90;;;18.80;98.50;;;;;;5006363;28;20228;-70
2021/09/07 05:15:22;;;;;;;11.30;7.60;;;18.70;98.40;;;;;;4995010;28;20228;-70
2021/09/07 05:17:49;;;;;;;11.17;8.70;;;18.70;98.40;;;;;;5009511;28;20217;-70
2021/09/07 05:20:15;;;;;;;10.60;8.27;;;18.70;98.90;;;;;;5016513;28;20217;-69
2021/09/07 05:22:41;;;;;;;11.00;8.50;;;18.70;98.60;;;;;;5028315;28;20469;-69
2021/09/07 05:25:07;;;;;;;9.50;8.40;;;18.70;98.70;;;;;;5006700;28;20473;-69
2021/09/07 05:27:33;;;;;;;11.30;8.43;;;18.70;98.70;;;;;;4988954;28;20268;-70
2021/09/07 05:29:59;;;;;;;10.40;8.30;;;18.70;98.70;;;;;;5026536;28;20493;-70
2021/09/07 05:32:24;;;;;;;11.37;9.20;;;18.70;98.90;;;;;;5026687;28;20490;-69
2021/09/07 05:34:51;;;;;;;11.57;8.20;;;18.70;98.90;;;;;;5018948;28;20212;-70
2021/09/07 05:37:16;;;;;;;9.97;8.17;;;18.60;98.90;;;;;;5013910;28;20224;-69
2021/09/07 05:39:42;;;;;;;10.60;8.53;;;18.60;98.90;;;;;;4991923;28;20459;-69
2021/09/07 05:42:08;;;;;;;12.00;9.40;;;18.60;98.90;;;;;;5006812;28;20229;-69
2021/09/07 05:44:33;;;;;;;12.43;9.67;;;18.60;99.00;;;;;;5011744;28;20240;-70
2021/09/07 05:47:00;;;;;;;11.73;8.10;;;18.60;99.00;;;;;;4992932;28;20303;-69
2021/09/07 05:49:26;;;;;;;10.23;8.50;;;18.60;99.00;;;;;;4991716;28;20634;-69
2021/09/07 05:51:52;;;;;;;10.10;8.03;;;18.60;99.00;;;;;;4988977;28;20456;-69
2021/09/07 05:54:17;;;;;;;12.53;7.70;;;18.60;99.10;;;;;;5008349;28;20464;-69
2021/09/07 05:56:43;;;;;;;9.50;8.50;;;18.60;98.90;;;;;;5006505;28;20250;-69
2021/09/07 05:59:09;;;;;;;11.00;8.43;;;18.60;99.10;;;;;;5027393;28;20228;-69
2021/09/07 06:01:35;;;;;;;13.27;9.23;;;18.60;99.40;;;;;;4989058;28;20221;-70
2021/09/07 06:04:01;;;;;;;12.47;8.77;;;18.60;99.40;;;;;;4974456;28;20218;-70
2021/09/07 06:06:29;;;;;;;12.77;8.17;;;18.60;99.40;;;;;;5006213;28;20832;-70
2021/09/07 06:08:54;;;;;;;10.10;7.90;;;18.60;99.30;;;;;;5004253;28;20734;-70
2021/09/07 06:11:20;;;;;;;8.87;7.97;;;18.60;99.40;;;;;;5007291;28;20543;-69
2021/09/07 06:13:46;;;;;;;12.20;8.47;;;18.60;99.40;;;;;;4989537;28;20216;-70
2021/09/07 06:16:11;;;;;;;12.23;8.90;;;18.60;99.50;;;;;;5004519;28;20590;-69
2021/09/07 06:18:38;;;;;;;12.90;9.40;;;18.50;99.50;;;;;;5006991;28;20224;-69
2021/09/07 06:21:03;;;;;;;10.60;8.67;;;18.50;99.20;;;;;;5003879;28;20590;-69
2021/09/07 06:23:29;;;;;;;13.53;9.83;;;18.50;99.60;;;;;;5007959;28;20479;-69
2021/09/07 06:25:58;;;;;;;8.40;7.00;;;18.50;99.50;;;;;;5008056;28;20229;-70
2021/09/07 06:28:24;;;;;;;13.63;8.97;;;18.50;99.50;;;;;;4991433;28;20209;-70
2021/09/07 06:30:50;;;;;;;11.67;9.00;;;18.50;99.60;;;;;;5004859;28;20559;-69
2021/09/07 06:33:15;;;;;;;10.60;8.10;;;18.50;99.80;;;;;;4990229;28;20632;-70
2021/09/07 06:35:41;;;;;;;12.10;8.40;;;18.60;99.70;;;;;;4991009;28;20225;-68
2021/09/07 06:38:07;;;;;;;9.97;8.20;;;18.50;99.60;;;;;;4987393;28;20279;-70
2021/09/07 06:40:33;;;;;;;13.80;9.03;;;18.50;99.80;;;;;;4988936;28;20235;-70
2021/09/07 06:42:58;;;;;;;11.73;9.10;;;18.50;99.90;;;;;;4985678;28;20229;-70
2021/09/07 06:45:24;;;;;;;13.80;9.10;;;18.50;99.90;;;;;;5006380;28;20699;-70
2021/09/07 06:47:50;;;;;;;10.90;8.70;;;18.50;99.90;;;;;;5006304;28;20691;-69
2021/09/07 06:50:15;;;;;;;13.50;8.77;;;18.50;99.90;;;;;;5003348;28;20567;-69
2021/09/07 06:52:41;;;;;;;10.70;9.10;;;18.50;99.90;;;;;;5005563;28;20252;-70
2021/09/07 06:55:07;;;;;;;11.87;8.93;;;18.50;99.90;;;;;;5003886;28;20749;-70
2021/09/07 06:57:33;;;;;;;14.97;9.77;;;18.50;99.90;;;;;;5007533;28;20590;-69
2021/09/07 06:59:59;;;;;;;11.67;9.63;;;18.60;99.90;;;;;;4987963;28;20988;-69
2021/09/07 07:02:24;;;;;;;13.23;9.43;;;18.60;99.90;;;;;;5004610;28;20228;-70
2021/09/07 07:04:50;;;;;;;11.63;9.23;;;18.60;99.90;;;;;;4989011;28;20224;-70
2021/09/07 07:07:16;;;;;;;13.33;9.60;;;18.60;99.90;;;;;;4988911;28;20229;-70
2021/09/07 07:09:41;;;;;;;18.97;9.13;;;18.60;99.90;;;;;;5010206;28;20227;-70
2021/09/07 07:12:07;;;;;;;12.47;10.07;;;18.60;99.90;;;;;;5006213;28;20216;-69
2021/09/07 07:14:33;;;;;;;10.93;9.40;;;18.60;99.90;;;;;;5009072;28;20224;-70
2021/09/07 07:16:59;;;;;;;13.87;10.40;;;18.60;99.90;;;;;;5003483;28;20545;-70
2021/09/07 07:19:24;;;;;;;12.10;9.37;;;18.60;99.90;;;;;;5004892;28;20230;-69
2021/09/07 07:21:50;;;;;;;14.93;9.70;;;18.60;99.90;;;;;;5010648;28;20709;-69
2021/09/07 07:24:17;;;;;;;9.10;8.07;;;18.60;99.90;;;;;;5024825;28;20486;-70
2021/09/07 07:26:46;;;;;;;10.70;8.77;;;18.70;99.90;;;;;;5007828;28;20287;-68
2021/09/07 07:29:12;;;;;;;16.17;10.30;;;18.60;99.90;;;;;;4987567;28;20452;-70
2021/09/07 07:31:42;;;;;;;13.33;9.10;;;18.70;99.90;;;;;;4988824;28;20460;-69
2021/09/07 07:34:08;;;;;;;12.63;8.80;;;18.70;99.90;;;;;;4986632;28;20499;-70
2021/09/07 07:36:34;;;;;;;15.30;9.80;;;18.70;99.90;;;;;;5004472;28;20558;-70
2021/09/07 07:39:03;;;;;;;10.17;8.60;;;18.70;99.90;;;;;;4985979;28;21050;-70
2021/09/07 07:41:29;;;;;;;11.60;9.40;;;18.70;99.90;;;;;;4993289;28;20232;-69
2021/09/07 07:43:55;;;;;;;11.50;8.77;;;18.70;99.90;;;;;;5000041;28;20488;-70
2021/09/07 07:46:21;;;;;;;12.23;9.40;;;18.70;99.90;;;;;;4991382;28;20287;-70
2021/09/07 07:48:47;;;;;;;11.60;9.40;;;18.80;99.90;;;;;;5004470;28;20209;-69
2021/09/07 07:51:13;;;;;;;13.40;9.20;;;18.80;99.90;;;;;;4985894;28;20464;-70
2021/09/07 07:53:40;;;;;;;12.00;8.57;;;18.80;99.90;;;;;;5006390;28;20480;-69
2021/09/07 07:56:06;;;;;;;12.50;9.47;;;18.80;99.90;;;;;;5002356;28;20268;-69
2021/09/07 07:58:32;;;;;;;10.20;7.50;;;18.90;99.90;;;;;;4988789;28;20461;-70
2021/09/07 08:00:58;;;;;;;12.60;9.50;;;18.90;99.90;;;;;;5002225;28;20836;-70
2021/09/07 08:03:25;;;;;;;11.40;9.57;;;18.90;99.90;;;;;;5004289;28;20222;-70
2021/09/07 08:05:51;;;;;;;11.97;9.07;;;19.00;99.90;;;;;;4986824;28;20607;-71
2021/09/07 08:08:17;;;;;;;11.80;9.27;;;19.00;99.90;;;;;;4988157;28;20450;-70
2021/09/07 08:10:43;;;;;;;11.33;8.67;;;19.00;99.90;;;;;;4988353;28;20456;-70
2021/09/07 08:13:08;;;;;;;13.13;9.60;;;19.00;99.90;;;;;;4985891;28;20468;-69
2021/09/07 08:15:34;;;;;;;12.10;9.67;;;19.10;99.90;;;;;;4979312;28;20214;-70
2021/09/07 08:18:01;;;;;;;11.53;8.77;;;19.10;99.90;;;;;;4986041;28;20713;-70
2021/09/07 08:20:30;;;;;;;10.23;8.37;;;19.10;99.90;;;;;;4989052;28;20249;-70
2021/09/07 08:22:56;;;;;;;10.50;7.50;;;19.20;99.90;;;;;;5010448;28;20478;-69
2021/09/07 08:25:22;;;;;;;10.17;8.37;;;19.20;99.90;;;;;;4988527;28;20480;-69
2021/09/07 08:27:48;;;;;;;11.20;8.83;;;19.30;99.90;;;;;;5005599;28;20452;-69
2021/09/07 08:30:15;;;;;;;10.30;8.27;;;19.30;99.90;;;;;;4987757;28;20213;-70
2021/09/07 08:32:42;;;;;;;11.60;9.53;;;19.30;99.90;;;;;;4989027;28;20275;-69
2021/09/07 08:35:09;;;;;;;10.70;7.97;;;19.40;99.90;;;;;;4986963;28;20509;-70
2021/09/07 08:37:35;;;;;;;12.37;8.93;;;19.50;99.90;;;;;;5012373;28;20447;-69
2021/09/07 08:40:02;;;;;;;10.50;8.67;;;19.60;99.90;;;;;;4993374;28;20486;-70
2021/09/07 08:42:27;;;;;;;10.70;9.07;;;19.70;99.90;;;;;;4992679;28;20463;-70
2021/09/07 08:44:53;;;;;;;12.00;9.83;;;19.70;99.90;;;;;;4990434;28;20565;-70
2021/09/07 08:47:19;;;;;;;11.43;9.00;;;19.80;99.90;;;;;;4992919;28;20225;-70
2021/09/07 08:49:48;;;;;;;12.33;9.47;;;19.90;99.90;;;;;;5007849;28;20938;-70
2021/09/07 08:52:14;;;;;;;11.27;8.80;;;20.00;99.90;;;;;;5006871;28;20456;-70
2021/09/07 08:54:44;;;;;;;10.43;8.50;;;20.00;99.90;;;;;;5008979;28;20479;-68
2021/09/07 08:57:10;;;;;;;12.93;10.43;;;20.20;99.90;;;;;;5025496;28;20469;-71
2021/09/07 08:59:37;;;;;;;13.60;9.20;;;20.30;99.90;;;;;;4998205;28;20464;-70
2021/09/07 09:02:19;;;;;;;13.17;9.97;;;20.30;99.90;;;;;;5006740;28;20225;-70
2021/09/07 09:04:49;;;;;;;13.00;9.77;;;20.40;99.90;;;;;;4992236;28;20463;-69
2021/09/07 09:07:29;;;;;;;13.10;9.73;;;20.50;99.90;;;;;;4990513;28;20985;-70
2021/09/07 09:09:56;;;;;;;16.97;9.57;;;20.60;99.90;;;;;;4989946;28;20468;-71
2021/09/07 09:12:36;;;;;;;11.00;8.80;;;20.80;99.90;;;;;;4991878;28;20467;-70
2021/09/07 09:15:12;;;;;;;12.97;9.43;;;20.90;99.90;;;;;;5006960;28;20471;-70
2021/09/07 09:17:38;;;;;;;12.10;9.90;;;21.00;99.90;;;;;;4992519;28;20578;-70
2021/09/07 09:20:19;;;;;;;13.67;9.70;;;21.10;99.90;;;;;;4990775;28;20531;-70
2021/09/07 09:22:52;;;;;;;11.10;9.13;;;21.10;99.90;;;;;;4995781;28;20218;-70
2021/09/07 09:25:23;;;;;;;12.63;10.30;;;21.20;99.90;;;;;;4998500;28;20512;-70
2021/09/07 09:27:56;;;;;;;12.33;9.00;;;21.30;99.90;;;;;;4992490;28;20463;-70
2021/09/07 09:30:43;;;;;;;16.93;9.83;;;21.40;99.90;;;;;;5008382;28;21032;-70
2021/09/07 09:33:11;;;;;;;14.07;9.07;;;21.50;99.90;;;;;;4990041;28;20977;-71
2021/09/07 09:35:58;;;;;;;10.40;8.53;;;21.50;99.90;;;;;;4992217;28;20464;-71
2021/09/07 09:38:34;;;;;;;12.27;9.30;;;21.60;99.90;;;;;;5003124;28;20447;-69
2021/09/07 09:41:02;;;;;;;13.07;8.20;;;21.70;99.90;;;;;;4992571;28;20845;-70
2021/09/07 09:43:43;;;;;;;12.90;9.60;;;21.80;99.90;;;;;;4983349;28;21037;-70
2021/09/07 09:46:26;;;;;;;13.03;9.07;;;21.90;99.90;;;;;;4989756;28;20483;-70
2021/09/07 09:49:10;;;;;;;14.03;10.13;;;22.00;99.90;;;;;;4988849;28;20549;-71
2021/09/07 09:51:36;;;;;;;12.83;8.70;;;22.10;99.90;;;;;;4987851;28;20464;-69
2021/09/07 09:54:02;;;;;;;10.83;8.30;;;22.20;99.90;;;;;;4988977;28;20808;-70
2021/09/07 09:56:28;;;;;;;11.37;8.97;;;22.20;99.90;;;;;;5020466;28;20513;-71
2021/09/07 09:58:55;;;;;;;9.23;8.10;;;22.40;99.90;;;;;;5008189;28;20467;-70
2021/09/07 10:01:21;;;;;;;12.30;9.53;;;22.50;99.90;;;;;;5007522;28;20452;-70
2021/09/07 10:03:48;;;;;;;12.33;9.63;;;22.60;99.90;;;;;;4988549;28;20464;-71
2021/09/07 10:06:16;;;;;;;15.33;9.47;;;22.70;99.90;;;;;;5005720;28;20243;-70
2021/09/07 10:08:42;;;;;;;11.10;8.57;;;22.80;99.90;;;;;;5021765;28;20505;-70
2021/09/07 10:11:14;;;;;;;13.00;9.70;;;22.90;99.90;;;;;;4989300;28;20978;-70
2021/09/07 10:13:43;;;;;;;14.63;9.53;;;23.10;99.90;;;;;;4981112;28;20243;-69
2021/09/07 10:16:16;;;;;;;11.97;8.50;;;23.20;99.90;;;;;;4989868;28;20503;-71
2021/09/07 10:18:48;;;;;;;12.83;9.07;;;23.30;99.90;;;;;;5016807;28;20473;-70
2021/09/07 10:26:42;;;;;;;12.60;9.30;;;23.50;99.90;;;;;;5018160;28;20482;-71
2021/09/07 10:29:26;;;;;;;16.20;9.03;;;23.50;99.90;;;;;;5003819;28;20557;-70
2021/09/07 10:31:54;;;;;;;10.10;9.03;;;23.50;99.90;;;;;;5002895;28;20549;-71
2021/09/07 10:34:28;;;;;;;13.67;9.40;;;23.60;99.80;;;;;;4993777;28;20456;-70
2021/09/07 10:37:00;;;;;;;10.97;8.80;;;23.60;99.90;;;;;;4985091;28;20875;-70
2021/09/07 10:39:40;;;;;;;10.97;9.40;;;23.80;99.90;;;;;;4990477;28;21008;-71
2021/09/07 10:42:08;;;;;;;11.67;9.07;;;23.90;99.80;;;;;;5005690;28;20486;-71
2021/09/07 10:44:38;;;;;;;12.30;8.63;;;24.00;99.90;;;;;;4991226;28;20530;-70
2021/09/07 10:47:15;;;;;;;12.87;9.50;;;24.20;99.70;;;;;;5006665;28;20471;-71
2021/09/07 10:49:47;;;;;;;14.03;8.97;;;24.30;99.60;;;;;;5000905;28;20463;-70
2021/09/07 10:52:13;;;;;;;11.80;9.50;;;24.40;99.40;;;;;;4987995;28;20470;-71
2021/09/07 10:54:47;;;;;;;13.23;10.60;;;24.60;99.10;;;;;;4987989;28;20461;-70
2021/09/07 10:57:32;;;;;;;12.43;8.73;;;24.70;98.90;;;;;;5003580;28;20234;-71
2021/09/07 10:59:58;;;;;;;16.70;8.90;;;24.80;99.10;;;;;;4987212;28;20470;-70
2021/09/07 11:02:48;;;;;;;13.53;9.17;;;24.80;98.80;;;;;;5006553;28;20456;-71
2021/09/07 11:05:23;;;;;;;10.87;9.17;;;24.90;98.40;;;;;;5001725;28;20965;-70
2021/09/07 11:08:05;;;;;;;13.87;9.90;;;25.10;98.10;;;;;;4990016;28;20463;-70
2021/09/07 11:10:37;;;;;;;11.63;9.43;;;25.10;97.90;;;;;;4988788;28;20546;-70
2021/09/07 11:13:26;;;;;;;11.37;9.27;;;25.30;97.90;;;;;;4987030;28;20868;-71
2021/09/07 11:15:53;;;;;;;14.10;8.93;;;25.30;97.10;;;;;;5002221;28;20460;-71
2021/09/07 11:18:25;;;;;;;10.23;8.00;;;25.50;96.60;;;;;;4998451;28;20456;-70
2021/09/07 11:20:53;;;;;;;13.90;10.77;;;25.40;96.10;;;;;;4997356;28;20539;-71
2021/09/07 11:23:32;;;;;;;13.83;10.30;;;25.40;95.80;;;;;;4998582;28;21044;-71
2021/09/07 11:26:02;;;;;;;11.27;8.63;;;25.20;94.80;;;;;;5000976;28;20483;-70
2021/09/07 11:28:29;;;;;;;12.73;8.30;;;25.20;95.30;;;;;;5006496;28;20574;-70
2021/09/07 11:30:55;;;;;;;11.57;8.90;;;25.20;94.90;;;;;;5002286;28;20479;-70
2021/09/07 11:33:23;;;;;;;11.07;8.83;;;25.30;95.40;;;;;;5003899;28;20456;-70
2021/09/07 11:35:50;;;;;;;11.80;9.00;;;25.50;94.40;;;;;;4988276;28;20459;-70
2021/09/07 11:38:22;;;;;;;11.43;8.80;;;25.60;94.40;;;;;;4999027;28;20460;-70
2021/09/07 11:40:54;;;;;;;12.27;9.30;;;25.70;94.40;;;;;;5010369;28;20976;-69
2021/09/07 11:43:38;;;;;;;11.93;9.00;;;25.80;94.60;;;;;;4986192;28;20467;-70
2021/09/07 11:46:30;;;;;;;10.67;9.43;;;25.90;94.20;;;;;;5003645;28;20488;-70
2021/09/07 11:49:08;;;;;;;11.80;9.03;;;26.10;94.50;;;;;;5003385;28;20456;-70
2021/09/07 11:51:40;;;;;;;12.23;9.10;;;26.00;93.90;;;;;;4996480;28;20455;-70
2021/09/07 11:54:07;;;;;;;13.60;8.93;;;26.10;94.20;;;;;;5003145;28;20458;-71
2021/09/07 11:56:35;;;;;;;9.30;7.97;;;26.00;94.10;;;;;;4993306;28;20575;-71
2021/09/07 11:59:10;;;;;;;10.43;8.20;;;26.00;93.10;;;;;;4983793;28;20462;-70
2021/09/07 12:01:40;;;;;;;11.40;8.43;;;26.10;93.90;;;;;;4984873;28;20874;-69
2021/09/07 12:04:06;;;;;;;11.23;8.70;;;26.10;93.80;;;;;;5002915;28;20506;-70
2021/09/07 12:06:40;;;;;;;10.33;7.77;;;26.20;93.10;;;;;;4988265;28;20992;-70
2021/09/07 12:09:22;;;;;;;10.93;7.80;;;26.30;92.70;;;;;;5004375;28;20223;-70
2021/09/07 12:12:13;;;;;;;11.17;8.27;;;26.30;92.60;;;;;;4986709;28;20497;-70
2021/09/07 12:14:40;;;;;;;10.30;8.90;;;26.30;92.60;;;;;;4988614;28;20976;-71
2021/09/07 12:17:12;;;;;;;11.90;8.63;;;26.40;93.10;;;;;;5003074;28;20470;-70
2021/09/07 12:19:48;;;;;;;9.60;8.20;;;26.40;91.80;;;;;;4987854;28;20459;-70
2021/09/07 12:22:24;;;;;;;9.50;8.00;;;26.30;92.40;;;;;;5001851;28;20534;-70
2021/09/07 12:25:13;;;;;;;9.40;8.30;;;26.40;92.90;;;;;;5010774;28;20467;-70
2021/09/07 12:27:46;;;;;;;9.20;8.10;;;26.40;92.00;;;;;;4996149;28;20546;-70
2021/09/07 12:30:20;;;;;;;7.97;7.10;;;26.40;92.00;;;;;;4983873;28;20509;-70
2021/09/07 12:32:54;;;;;;;9.47;8.00;;;26.40;91.60;;;;;;4998197;28;20471;-70
2021/09/07 12:35:32;;;;;;;9.73;8.37;;;26.40;91.90;;;;;;5002698;28;20459;-70
2021/09/07 12:37:59;;;;;;;10.60;8.50;;;26.40;91.50;;;;;;4991827;28;20444;-71
2021/09/07 12:40:25;;;;;;;10.40;8.27;;;26.50;91.40;;;;;;4991689;28;21109;-70
2021/09/07 12:42:51;;;;;;;8.73;7.60;;;26.60;91.40;;;;;;5000625;28;20571;-70
2021/09/07 12:45:17;;;;;;;8.23;7.30;;;26.70;91.20;;;;;;4985435;28;20550;-70
2021/09/07 12:47:42;;;;;;;10.27;8.60;;;26.80;91.40;;;;;;5002255;28;20753;-71